RoSS Salvaggio — WDC2805 — position and weather

sailwx.info

Track history (hours):
 
Tides and Currents Weather Stations Pressure Air Temp Water Temp Dewpoint Dewpoint Depression Visibility Wind Speed Wind Dir Waves Ship Positions

RoSS Salvaggio

Owner: Marquette Transportation Company Gulf-Inland, LLC, Jefferson, LA. More information available from US FCC via Universal Licensing System and Coast Guard Vessel Documentation Center.

Last reported at 2018-Jun-23 07:57 UTC. Time now 2018-Jun-24 01:41 UTC.
Position N 29°47' W 095°05'.

Length 113 m; draft 2.7 m.

Type: . MMSI: 366997940.

Date/timePositionNaut miles runAvg speedWind from/ knotsBaromVisibWave heightAir tempDewpointWater temp
2018-Jun-23 07:57N 29°47' W 095°05'1 1.2
2018-Jun-23 07:24N 29°47' W 095°06'1 1.1
2018-Jun-23 06:49N 29°47' W 095°05'1 0.8
2018-Jun-23 05:54N 29°47' W 095°04'0 0.1
2018-Jun-23 04:38N 29°47' W 095°04'0 2.4
2018-Jun-23 04:30N 29°47' W 095°04'1 1.2
2018-Jun-23 03:59N 29°46' W 095°05'2 3.9
2018-Jun-23 03:28N 29°45' W 095°06'3 0.2
2018-Jun-22 14:17N 29°44' W 095°03'3 1.8
2018-Jun-22 12:35N 29°46' W 095°06'0 0.1
2018-Jun-22 12:29N 29°46' W 095°06'4 0.6
2018-Jun-22 05:00N 29°44' W 095°01'0 0.0
2018-Jun-22 04:30N 29°44' W 095°01'0 0.0
2018-Jun-22 03:54N 29°44' W 095°01'0 0.0
2018-Jun-22 03:30N 29°44' W 095°01'0 0.0
2018-Jun-21 20:54N 29°44' W 095°01'  
Track history (hours):
 
Tides and Currents Weather Stations Pressure Air Temp Water Temp Dewpoint Dewpoint Depression Visibility Wind Speed Wind Dir Waves Ship Positions

RoSS Salvaggio

Owner: Marquette Transportation Company Gulf-Inland, LLC, Jefferson, LA. More information available from US FCC via Universal Licensing System and Coast Guard Vessel Documentation Center.

Last reported at 2018-Jun-23 07:57 UTC. Time now 2018-Jun-24 01:41 UTC.
Position N 29°47' W 095°05'.

Length 113 m; draft 2.7 m.

Type: . MMSI: 366997940.

Date/timePositionNaut miles runAvg speedWind from/ knotsBaromVisibWave heightAir tempDewpointWater temp
2018-Jun-23 07:57N 29°47' W 095°05'1 1.2
2018-Jun-23 07:24N 29°47' W 095°06'1 1.1
2018-Jun-23 06:49N 29°47' W 095°05'1 0.8
2018-Jun-23 05:54N 29°47' W 095°04'0 0.1
2018-Jun-23 04:38N 29°47' W 095°04'0 2.4
2018-Jun-23 04:30N 29°47' W 095°04'1 1.2
2018-Jun-23 03:59N 29°46' W 095°05'2 3.9
2018-Jun-23 03:28N 29°45' W 095°06'3 0.2
2018-Jun-22 14:17N 29°44' W 095°03'3 1.8
2018-Jun-22 12:35N 29°46' W 095°06'0 0.1
2018-Jun-22 12:29N 29°46' W 095°06'4 0.6
2018-Jun-22 05:00N 29°44' W 095°01'0 0.0
2018-Jun-22 04:30N 29°44' W 095°01'0 0.0
2018-Jun-22 03:54N 29°44' W 095°01'0 0.0
2018-Jun-22 03:30N 29°44' W 095°01'0 0.0
2018-Jun-21 20:54N 29°44' W 095°01'  

Dump ship's entire track history